Hovedside
METAR-TAF:

METAR-TAF

Lufthavner :

Førde lufthamn. Bringeland

Førde, Norge

breddegrad: 61-27N, lengdegrad: 005-52E, høyde over havet: 150 m

Gjeldene værobservasjon

Denne rapporten ble laget for 31 minutter siden, klokken 15:20 UTC
Vind 9 kt fra Sør-sørvest, skiftende mellom Sør-sørøst og Vest-sørvest
Temperatur 21°C
Luftfuktighet 33%
Trykk 1018 hPa
Sikt 10 km eller mer

METAR: ENBL 241520Z AUTO 21009KT 160V240 9999 NCD 21/04 Q1018

Tid: 17:51 (15:51 UTC)

Varsel

Denne rapporten ble laget for 1 time og 51 minutter siden, klokken 14:00 UTC
Varsel gyldig fra 24. klokken 15 UTC til 24. klokken 22 UTC
Vind 8 kt fra Sør
Sikt 10 km eller mer
ingen skyer under 1500 m og ingen bygeskyer

TAF: ENBL 241400Z 2415/2422 18008KT CAVOK

Værobservasjoner og værvarsel for over 4000 flyplasser (METAR- og TAF-rapporter).

Tilgjengelige stasjoner er representert av de røde og gule prikkene på kartet.

Hold musepekeren over prikken for å se navnet på stasjonen.

Klikk så for å se værobservasjoner og -varsler.

For å forandre kartet kan du klikke på den grønne knappen med svart kryss for å zoome inn, på den grønne knappen med strek for å zoome ut, eller på de grønne pilene for å se tilstøtende kart.


METAR-TAF: